createdAt,value
2023-10-10T00:01:47.669Z,100384.97
2023-10-10T00:06:51.086Z,100297.75
2023-10-10T00:11:54.623Z,100315.81
2023-10-10T00:16:56.805Z,100321.81
2023-10-10T00:21:59.033Z,100277.69
2023-10-10T00:27:15.320Z,100332.38
2023-10-10T00:32:24.136Z,100329.56
2023-10-10T00:37:35.757Z,100308.94
2023-10-10T00:42:43.572Z,100292.53
2023-10-10T00:47:51.785Z,100365.78
2023-10-10T00:52:57.156Z,100283.16
2023-10-10T00:58:00.292Z,100339.78
2023-10-10T01:03:21.309Z,100413.47
2023-10-10T01:08:32.678Z,100236.88
2023-10-10T01:13:35.073Z,100366.72
2023-10-10T01:18:43.160Z,100290.16
2023-10-10T01:23:46.434Z,100279.88
2023-10-10T01:28:51.277Z,100359.28
2023-10-10T01:33:52.885Z,100323.31
2023-10-10T01:38:57.878Z,100327.75
2023-10-10T01:44:11.861Z,100294.94
2023-10-10T01:49:15.240Z,100333.78
2023-10-10T01:54:19.947Z,100380.81
2023-10-10T01:59:25.737Z,100359.34
2023-10-10T02:04:30.375Z,100379.03
2023-10-10T02:09:35.414Z,100394.19
2023-10-10T02:14:37.687Z,100332.09
2023-10-10T02:19:42.347Z,100260.69
2023-10-10T02:24:50.120Z,100292.78
2023-10-10T02:29:54.767Z,100267.50
2023-10-10T02:35:27.786Z,100257.19
2023-10-10T02:40:32.638Z,100293.47
2023-10-10T02:45:37.046Z,100379.69
2023-10-10T02:50:41.981Z,100244.53
2023-10-10T02:55:51.800Z,100302.88
2023-10-10T03:00:58.727Z,100244.75
2023-10-10T03:06:07.485Z,100259.84
2023-10-10T03:11:37.240Z,100263.34
2023-10-10T03:16:46.992Z,100315.44
2023-10-10T03:21:48.628Z,100279.91
2023-10-10T03:26:51.069Z,100323.91
2023-10-10T03:32:11.256Z,100354.09
2023-10-10T03:37:42.759Z,100295.28
2023-10-10T03:43:02.949Z,100308.91
2023-10-10T03:48:23.842Z,100241.44
2023-10-10T03:53:43.993Z,100338.91
2023-10-10T03:59:04.114Z,100376.72
2023-10-10T04:04:24.615Z,100383.78
2023-10-10T04:09:45.226Z,100369.44
2023-10-10T04:15:05.417Z,100345.09
2023-10-10T04:20:26.215Z,100274.94
2023-10-10T04:25:46.786Z,100288.28
2023-10-10T04:31:06.957Z,100342.16
2023-10-10T04:36:27.095Z,100319.53
2023-10-10T04:41:47.533Z,100356.25
2023-10-10T04:47:07.530Z,100414.16
2023-10-10T04:52:27.523Z,100391.44
2023-10-10T04:57:47.689Z,100356.47
2023-10-10T05:03:08.018Z,100331.47
2023-10-10T05:08:27.950Z,100352.06
2023-10-10T05:13:48.470Z,100334.19
2023-10-10T05:19:08.689Z,100288.81
2023-10-10T05:24:10.640Z,100384.88
2023-10-10T05:29:12.265Z,100326.88
2023-10-10T05:34:16.466Z,100318.13
2023-10-10T05:39:22.634Z,100255.47
2023-10-10T05:44:24.834Z,100315.56
2023-10-10T05:49:31.384Z,100234.06
2023-10-10T05:54:33.606Z,100265.84
2023-10-10T05:59:35.348Z,100282.63
2023-10-10T06:04:37.338Z,100390.25
2023-10-10T06:09:42.529Z,100344.28
2023-10-10T06:14:44.354Z,100326.72
2023-10-10T06:19:47.362Z,100311.97
2023-10-10T06:24:49.054Z,100346.00
2023-10-10T06:29:50.685Z,100260.81
2023-10-10T06:35:05.735Z,100272.06
2023-10-10T06:40:09.928Z,100322.06
2023-10-10T06:45:12.829Z,100323.38
2023-10-10T06:50:14.565Z,100281.25
2023-10-10T06:55:22.779Z,100297.16
2023-10-10T07:00:33.656Z,100282.88
2023-10-10T07:05:35.722Z,100342.13
2023-10-10T07:10:38.036Z,100357.13
2023-10-10T07:15:41.681Z,100402.50
2023-10-10T07:21:03.808Z,100362.06
2023-10-10T07:26:26.102Z,100364.38
2023-10-10T07:31:35.620Z,100368.75
2023-10-10T07:36:37.951Z,100365.63
2023-10-10T07:41:46.082Z,100510.13
2023-10-10T07:47:06.445Z,100393.03
2023-10-10T07:52:17.204Z,100433.84
2023-10-10T07:57:29.606Z,100416.28
2023-10-10T08:02:34.240Z,100465.91
2023-10-10T08:07:36.384Z,100485.13
2023-10-10T08:12:38.809Z,100426.00
2023-10-10T08:17:52.768Z,100487.47
2023-10-10T08:23:00.073Z,100420.41
2023-10-10T08:28:01.900Z,100510.41
2023-10-10T08:33:04.789Z,100429.34
2023-10-10T08:38:07.244Z,100389.97
2023-10-10T08:43:10.355Z,100394.91
2023-10-10T08:48:17.113Z,100376.88
2023-10-10T08:53:21.884Z,100461.00
2023-10-10T08:58:24.176Z,100470.75
2023-10-10T09:03:27.783Z,100481.78
2023-10-10T09:08:29.692Z,100437.31
2023-10-10T09:13:33.146Z,100444.50
2023-10-10T09:18:34.913Z,100467.84
2023-10-10T09:23:43.828Z,100453.75
2023-10-10T09:28:56.463Z,100530.88
2023-10-10T09:34:07.830Z,100417.84
2023-10-10T09:39:12.580Z,100440.03
2023-10-10T09:44:24.518Z,100420.53
2023-10-10T09:49:41.284Z,100473.44
2023-10-10T09:54:45.947Z,100446.72
2023-10-10T09:59:54.411Z,100445.47
2023-10-10T10:04:57.143Z,100486.34
2023-10-10T10:10:18.164Z,100486.47
2023-10-10T10:15:25.612Z,100434.47
2023-10-10T10:20:50.188Z,100406.34
2023-10-10T10:26:05.655Z,100427.56
2023-10-10T10:31:17.474Z,100386.81
2023-10-10T10:36:19.487Z,100394.00
2023-10-10T10:41:41.266Z,100455.44
2023-10-10T10:46:49.057Z,100397.50
2023-10-10T10:52:13.825Z,100494.38
2023-10-10T11:06:17.930Z,100429.31
2023-10-10T11:11:41.609Z,100399.47
2023-10-10T11:16:47.356Z,100445.84
2023-10-10T11:21:50.118Z,100403.03
2023-10-10T11:27:12.182Z,100394.25
2023-10-10T11:32:15.643Z,100346.84
2023-10-10T11:37:32.350Z,100388.44
2023-10-10T11:42:35.218Z,100384.69
2023-10-10T11:47:46.339Z,100347.78
2023-10-10T11:52:58.583Z,100352.19
2023-10-10T11:58:07.660Z,100405.13
2023-10-10T12:03:35.266Z,100360.22
2023-10-10T12:08:39.149Z,100334.03
2023-10-10T12:13:40.879Z,100302.28
2023-10-10T12:18:50.859Z,100314.22
2023-10-10T12:24:00.448Z,100339.28
2023-10-10T12:29:03.885Z,100312.91
2023-10-10T12:34:09.244Z,100302.66
2023-10-10T12:39:16.141Z,100290.47
2023-10-10T12:44:18.273Z,100231.00
2023-10-10T12:49:20.564Z,100272.66
2023-10-10T12:54:22.919Z,100246.34
2023-10-10T12:59:31.975Z,100253.56
2023-10-10T13:04:39.138Z,100296.06
2023-10-10T13:09:44.265Z,100249.22
2023-10-10T13:14:51.878Z,100321.25
2023-10-10T13:19:54.199Z,100238.53
2023-10-10T13:24:55.949Z,100255.63
2023-10-10T13:29:57.650Z,100278.75
2023-10-10T13:35:01.861Z,100269.59
2023-10-10T13:40:07.038Z,100264.34
2023-10-10T13:45:13.166Z,100226.13
2023-10-10T13:50:29.990Z,100255.34
2023-10-10T13:55:35.457Z,100243.69
2023-10-10T14:00:53.617Z,100199.97
2023-10-10T14:06:09.403Z,100172.31
2023-10-10T14:11:22.371Z,100183.97
2023-10-10T14:16:24.966Z,100138.34
2023-10-10T14:21:27.355Z,100195.81
2023-10-10T14:26:32.280Z,100172.56
2023-10-10T14:31:46.932Z,100233.09
2023-10-10T14:36:52.677Z,100204.78
2023-10-10T14:41:59.241Z,100190.03
2023-10-10T14:47:05.086Z,100205.84
2023-10-10T14:52:07.811Z,100178.59
2023-10-10T14:57:24.736Z,100163.63
2023-10-10T15:02:28.365Z,100113.69
2023-10-10T15:07:30.189Z,100119.19
2023-10-10T15:12:34.387Z,100133.72
2023-10-10T15:17:36.113Z,100110.84
2023-10-10T15:22:42.979Z,100122.81
2023-10-10T15:27:44.679Z,100114.47
2023-10-10T15:32:48.614Z,100121.94
2023-10-10T15:37:50.904Z,100114.94
2023-10-10T15:42:53.472Z,100092.91
2023-10-10T15:47:55.796Z,100123.38
2023-10-10T15:52:57.712Z,100090.56
2023-10-10T15:57:59.334Z,100128.78
2023-10-10T16:03:01.591Z,100124.13
2023-10-10T16:08:09.476Z,100121.69
2023-10-10T16:13:11.469Z,100110.03
2023-10-10T16:18:13.211Z,100124.75
2023-10-10T16:23:14.871Z,100085.06
2023-10-10T16:28:16.567Z,100089.66
2023-10-10T16:33:22.133Z,100070.44
2023-10-10T16:38:24.059Z,100090.19
2023-10-10T16:43:25.760Z,100103.75
2023-10-10T16:48:27.511Z,100097.59
2023-10-10T16:53:31.147Z,100080.59
2023-10-10T16:58:32.777Z,100022.16
2023-10-10T17:03:34.590Z,100076.53
2023-10-10T17:08:37.582Z,100048.66
2023-10-10T17:13:40.086Z,100029.63
2023-10-10T17:18:46.348Z,100049.91
2023-10-10T17:23:51.842Z,100076.41
2023-10-10T17:28:55.479Z,100023.91
2023-10-10T17:33:58.287Z,100062.72
2023-10-10T17:39:01.884Z,100049.31
2023-10-10T17:44:10.294Z,100098.16
2023-10-10T17:49:13.153Z,100073.66
2023-10-10T17:54:17.626Z,100090.88
2023-10-10T17:59:20.763Z,100101.34
2023-10-10T18:04:26.122Z,100030.91
2023-10-10T18:09:33.259Z,100047.84
2023-10-10T18:14:35.368Z,100061.47
2023-10-10T18:19:41.488Z,100125.75
2023-10-10T18:24:43.329Z,100028.94
2023-10-10T18:29:45.189Z,100072.41
2023-10-10T18:34:46.928Z,100115.53
2023-10-10T18:39:48.556Z,100108.41
2023-10-10T18:44:50.218Z,100082.09
2023-10-10T18:49:51.957Z,100072.56
2023-10-10T18:54:53.621Z,100106.31
2023-10-10T18:59:55.523Z,100074.78
2023-10-10T19:04:57.277Z,100095.44
2023-10-10T19:10:03.498Z,100056.03
2023-10-10T19:15:05.802Z,100077.13
2023-10-10T19:20:08.190Z,100085.13
2023-10-10T19:25:13.003Z,100038.44
2023-10-10T19:30:17.584Z,100049.53
2023-10-10T19:35:22.235Z,100088.25
2023-10-10T19:40:29.461Z,100049.38
2023-10-10T19:45:31.461Z,100068.28
2023-10-10T19:50:39.318Z,100067.16
2023-10-10T19:55:45.736Z,100063.19
2023-10-10T20:00:47.887Z,100098.97
2023-10-10T20:05:49.761Z,100069.59
2023-10-10T20:10:51.998Z,100040.06
2023-10-10T20:15:54.036Z,100024.53
2023-10-10T20:20:56.045Z,100047.34
2023-10-10T20:25:57.774Z,100045.84
2023-10-10T20:30:59.437Z,100048.25
2023-10-10T20:36:03.862Z,100050.59
2023-10-10T20:41:12.464Z,100056.78
2023-10-10T20:46:19.777Z,100015.78
2023-10-10T20:51:26.029Z,100041.19
2023-10-10T20:56:28.765Z,100054.66
2023-10-10T21:01:31.191Z,100057.91
2023-10-10T21:06:32.915Z,100088.63
2023-10-10T21:11:34.928Z,100079.91
2023-10-10T21:16:36.614Z,100110.00
2023-10-10T21:21:38.238Z,100097.41
2023-10-10T21:26:40.110Z,100102.59
2023-10-10T21:31:42.602Z,100065.34
2023-10-10T21:36:44.310Z,100031.56
2023-10-10T21:41:46.714Z,100066.16
2023-10-10T21:46:52.112Z,100073.16
2023-10-10T21:51:54.570Z,100079.06
2023-10-10T21:56:56.303Z,100098.06
2023-10-10T22:01:58.000Z,100050.84
2023-10-10T22:06:59.832Z,100039.97
2023-10-10T22:12:01.507Z,100127.34
2023-10-10T22:17:08.800Z,100022.00
2023-10-10T22:22:11.282Z,100036.81
2023-10-10T22:27:13.854Z,100020.22
2023-10-10T22:32:16.509Z,99959.03
2023-10-10T22:37:18.511Z,100115.13
2023-10-10T22:42:21.120Z,100032.88
2023-10-10T22:47:22.759Z,100020.34
2023-10-10T22:52:24.378Z,100058.06
2023-10-10T22:57:26.120Z,100085.66
2023-10-10T23:02:32.364Z,100026.50
2023-10-10T23:07:34.918Z,100005.38
2023-10-10T23:12:37.499Z,100038.88
2023-10-10T23:17:40.929Z,100022.91
2023-10-10T23:22:43.348Z,100073.34
2023-10-10T23:27:45.341Z,99984.38
2023-10-10T23:32:48.200Z,100011.84
2023-10-10T23:37:53.990Z,100046.69
2023-10-10T23:42:55.655Z,100076.94
2023-10-10T23:47:57.523Z,100057.50
2023-10-10T23:53:03.298Z,100090.81
2023-10-10T23:58:06.638Z,100070.13
